Pagrindinis puslapis
METAR-TAF:

METAR-TAF

Oro uostai :

Carlsbad, Naujoji Meksika, Jungtinės Amerikos Valstijos

platuma: 32-20-15N, ilguma: 104-15-48W, Aukštis: 1004 m

Dabartinis oras

Ataskaita buvo paskelbta 46 minutes, ne 20:53 UTC
Vėjas 10 kt iš Pietryčių su gūsio iki 20 kt
Temperatūra 35°C
Drėgmė 10%
Slėgis 1017 hPa
Matomumas: 16.1 km
Giedras dangus

METAR: KCNM 172053Z AUTO 14010G20KT 10SM CLR 35/M01 A3003 RMK AO2 SLP107 6//// T03501011 58021 PNO $

Laikas: 15:39 (21:39 UTC)

Prognozė

Ataskaita buvo paskelbta 4 valandos ir 19 minutes, ne 17:20 UTC
Prognozė galioja nuo 17 metu 18 UTC su 18 metu 18 UTC
Vėjas 10 kt iš Pietų/Pietryčių
Matomumas: 10 km
Giedras dangus

TAF: KCNM 171720Z 1718/1818 15010KT P6SM SKC

Orai ataskaitas ir orų prognozės (METAR, TAF).

turimą stotys yra geltonos ir raudonos taškus žemėlapyje.

Perkelti pele per norėdami pamatyti stoties vardą.

Tada spustelėkite, norėdami matyti oro stebėjimo ir prognozės.

Norėdami pakeisti žemėlapį: spustelėkite ant žalios mygtukų su juodo kryžiaus žemyn,; žalią mygtuką su brūkšneliu, jei norite nutolinti; arba žalių rodyklių gretimoms žemėlapius.


METAR-TAF: